Terminal Aerodrome Forecast
Issued by NWS Brownsville, TX

Home | Current Version | Previous Version | Text Only | Print | Product List | Glossary On
Versions: 1 2 3 4 5 6 7 8 9 10 11 12 13 14 15 16
000
FTUS44 KBRO 271700
TAFMFE
TAF
KMFE 271733Z 2718/2818 35006KT P6SM SCT050
     FM280300 01007KT P6SM FEW030
     FM281400 03010KT P6SM VCSH BKN025
     FM281700 20008KT P6SM SCT025 BKN040 PROB30 2817/2818 5SM +SHRA
      BKN025=

USA.gov is the U.S. government's official web portal to all federal, state and local government web resources and services.